createdAt,value
2023-02-09T00:00:34.588Z,103095.84
2023-02-09T00:03:04.407Z,103094.94
2023-02-09T00:05:34.246Z,103089.75
2023-02-09T00:08:07.046Z,103090.53
2023-02-09T00:10:36.839Z,103089.56
2023-02-09T00:13:19.150Z,103088.53
2023-02-09T00:15:52.091Z,103088.66
2023-02-09T00:18:22.832Z,103092.03
2023-02-09T00:20:58.676Z,103093.13
2023-02-09T00:23:32.087Z,103083.06
2023-02-09T00:26:02.973Z,103088.38
2023-02-09T00:28:33.505Z,103078.78
2023-02-09T00:31:03.385Z,103085.78
2023-02-09T00:33:33.133Z,103091.75
2023-02-09T00:36:02.905Z,103077.88
2023-02-09T00:38:35.362Z,103078.78
2023-02-09T00:41:06.089Z,103070.81
2023-02-09T00:43:37.163Z,103070.09
2023-02-09T00:46:07.159Z,103071.78
2023-02-09T00:48:37.276Z,103069.31
2023-02-09T00:51:08.286Z,103077.28
2023-02-09T00:53:40.654Z,103079.09
2023-02-09T00:56:10.551Z,103083.38
2023-02-09T00:58:40.365Z,103080.59
2023-02-09T01:01:13.654Z,103074.50
2023-02-09T01:03:44.026Z,103077.09
2023-02-09T01:06:14.014Z,103070.81
2023-02-09T01:08:46.439Z,103067.50
2023-02-09T01:11:18.488Z,103065.63
2023-02-09T01:13:48.907Z,103056.19
2023-02-09T01:16:20.725Z,103050.84
2023-02-09T01:18:50.577Z,103039.38
2023-02-09T01:21:22.470Z,103034.78
2023-02-09T01:23:57.344Z,103030.19
2023-02-09T01:26:27.233Z,103027.28
2023-02-09T01:28:57.839Z,103028.63
2023-02-09T01:31:30.592Z,103019.78
2023-02-09T01:34:03.123Z,103018.53
2023-02-09T01:36:34.225Z,103012.25
2023-02-09T01:39:06.998Z,103010.13
2023-02-09T01:41:37.797Z,103016.81
2023-02-09T01:44:10.526Z,103013.13
2023-02-09T01:46:40.963Z,103017.22
2023-02-09T01:49:14.365Z,103012.81
2023-02-09T01:51:48.051Z,103016.00
2023-02-09T01:54:25.118Z,103013.41
2023-02-09T01:57:00.807Z,103003.81
2023-02-09T01:59:31.474Z,103007.16
2023-02-09T02:02:01.398Z,103006.97
2023-02-09T02:04:31.641Z,103020.88
2023-02-09T02:07:11.324Z,103015.84
2023-02-09T02:09:43.776Z,103009.00
2023-02-09T02:12:13.704Z,103009.91
2023-02-09T02:14:43.632Z,102997.69
2023-02-09T02:17:28.032Z,102984.91
2023-02-09T02:20:23.699Z,102981.53
2023-02-09T02:23:03.366Z,102971.03
2023-02-09T02:26:02.912Z,102964.94
2023-02-09T02:29:15.826Z,102952.53
2023-02-09T02:32:12.861Z,102951.31
2023-02-09T02:34:48.479Z,102948.53
2023-02-09T02:37:30.060Z,102935.75
2023-02-09T02:40:08.875Z,102937.56
2023-02-09T02:42:54.752Z,102933.34
2023-02-09T02:45:35.710Z,102923.09
2023-02-09T02:48:21.442Z,102913.63
2023-02-09T02:50:57.688Z,102920.50
2023-02-09T02:53:32.366Z,102915.19
2023-02-09T02:56:08.406Z,102908.16
2023-02-09T02:58:42.029Z,102906.47
2023-02-09T03:01:16.121Z,102891.50
2023-02-09T03:03:50.378Z,102883.72
2023-02-09T03:06:21.311Z,102901.75
2023-02-09T03:08:53.509Z,102903.41
2023-02-09T03:11:25.237Z,102905.25
2023-02-09T03:14:07.931Z,102908.75
2023-02-09T03:16:47.342Z,102893.06
2023-02-09T03:19:27.953Z,102894.88
2023-02-09T03:22:01.653Z,102895.78
2023-02-09T03:24:39.774Z,102898.53
2023-02-09T03:27:18.316Z,102896.88
2023-02-09T03:29:50.864Z,102885.59
2023-02-09T03:32:22.727Z,102882.09
2023-02-09T03:34:55.595Z,102883.00
2023-02-09T03:37:26.263Z,102874.31
2023-02-09T03:39:56.088Z,102883.91
2023-02-09T03:42:25.970Z,102886.66
2023-02-09T03:44:55.784Z,102881.47
2023-02-09T03:47:25.667Z,102876.31
2023-02-09T03:49:58.196Z,102878.13
2023-02-09T03:52:28.400Z,102865.16
2023-02-09T03:54:58.196Z,102860.75
2023-02-09T03:57:28.271Z,102864.06
2023-02-09T03:59:58.090Z,102869.25
2023-02-09T04:02:28.014Z,102868.34
2023-02-09T04:05:00.727Z,102856.47
2023-02-09T04:07:30.859Z,102856.47
2023-02-09T04:10:00.703Z,102853.69
2023-02-09T04:12:30.599Z,102856.00
2023-02-09T04:15:00.500Z,102860.09
2023-02-09T04:17:30.406Z,102852.31
2023-02-09T04:20:02.855Z,102857.97
2023-02-09T04:22:32.739Z,102867.72
2023-02-09T04:25:02.559Z,102857.97
2023-02-09T04:27:32.372Z,102867.72
2023-02-09T04:30:02.213Z,102879.00
2023-02-09T04:32:32.438Z,102880.09
2023-02-09T04:35:04.873Z,102875.66
2023-02-09T04:37:34.794Z,102884.50
2023-02-09T04:40:06.783Z,102867.88
2023-02-09T04:42:37.505Z,102859.19
2023-02-09T04:45:08.839Z,102852.59
2023-02-09T04:47:38.819Z,102865.75
2023-02-09T04:50:12.062Z,102865.88
2023-02-09T04:52:42.209Z,102869.97
2023-02-09T04:55:12.141Z,102871.66
2023-02-09T04:57:54.414Z,102882.94
2023-02-09T05:00:24.657Z,102895.16
2023-02-09T05:02:54.515Z,102888.13
2023-02-09T05:05:27.008Z,102882.34
2023-02-09T05:07:56.910Z,102882.19
2023-02-09T05:10:26.924Z,102864.97
2023-02-09T05:12:56.810Z,102872.56
2023-02-09T05:15:26.778Z,102876.84
2023-02-09T05:17:56.735Z,102867.25
2023-02-09T05:20:29.233Z,102874.41
2023-02-09T05:22:59.101Z,102872.56
2023-02-09T05:25:29.318Z,102871.97
2023-02-09T05:27:59.258Z,102866.78
2023-02-09T05:30:29.536Z,102866.03
2023-02-09T05:32:59.423Z,102871.97
2023-02-09T05:35:32.001Z,102865.88
2023-02-09T05:38:01.818Z,102867.56
2023-02-09T05:40:31.766Z,102878.09
2023-02-09T05:43:03.543Z,102879.59
2023-02-09T05:45:33.401Z,102881.28
2023-02-09T05:48:03.266Z,102876.09
2023-02-09T05:50:36.216Z,102877.75
2023-02-09T05:53:06.322Z,102887.97
2023-02-09T05:55:36.130Z,102889.66
2023-02-09T05:58:06.015Z,102891.31
2023-02-09T06:00:35.842Z,102888.72
2023-02-09T06:03:05.737Z,102889.50
2023-02-09T06:05:38.151Z,102890.25
2023-02-09T06:08:08.096Z,102890.41
2023-02-09T06:10:37.867Z,102904.28
2023-02-09T06:13:07.710Z,102902.63
2023-02-09T06:15:37.509Z,102896.84
2023-02-09T06:18:07.728Z,102905.53
2023-02-09T06:20:40.350Z,102900.47
2023-02-09T06:23:10.146Z,102896.06
2023-02-09T06:25:41.738Z,102897.56
2023-02-09T06:28:11.581Z,102888.88
2023-02-09T06:30:41.475Z,102890.56
2023-02-09T06:33:11.366Z,102894.66
2023-02-09T06:35:43.750Z,102891.16
2023-02-09T06:38:13.874Z,102873.75
2023-02-09T06:40:43.925Z,102884.00
2023-02-09T06:43:13.982Z,102882.91
2023-02-09T06:45:44.367Z,102891.28
2023-02-09T06:48:14.177Z,102894.47
2023-02-09T06:50:47.017Z,102884.09
2023-02-09T06:53:18.824Z,102882.28
2023-02-09T06:55:48.778Z,102878.00
2023-02-09T06:58:18.545Z,102871.91
2023-02-09T07:00:48.515Z,102886.38
2023-02-09T07:03:18.416Z,102876.94
2023-02-09T07:05:50.828Z,102876.03
2023-02-09T07:08:20.585Z,102881.94
2023-02-09T07:10:50.457Z,102877.69
2023-02-09T07:13:20.271Z,102872.34
2023-02-09T07:15:58.008Z,102874.03
2023-02-09T07:18:27.911Z,102862.72
2023-02-09T07:21:02.148Z,102886.97
2023-02-09T07:23:32.479Z,102899.16
2023-02-09T07:26:06.159Z,102893.25
2023-02-09T07:28:37.637Z,102896.75
2023-02-09T07:31:09.254Z,102892.31
2023-02-09T07:33:40.057Z,102888.97
2023-02-09T07:36:15.706Z,102895.97
2023-02-09T07:38:46.253Z,102897.84
2023-02-09T07:41:19.775Z,102900.41
2023-02-09T07:43:50.282Z,102905.00
2023-02-09T07:46:23.462Z,102914.00
2023-02-09T07:48:53.307Z,102915.81
2023-02-09T07:51:26.784Z,102917.22
2023-02-09T07:53:57.700Z,102918.63
2023-02-09T07:56:28.136Z,102911.94
2023-02-09T07:58:59.023Z,102908.91
2023-02-09T08:01:29.351Z,102910.13
2023-02-09T08:03:59.164Z,102909.09
2023-02-09T08:06:42.415Z,102901.03
2023-02-09T08:09:14.460Z,102912.97
2023-02-09T08:11:50.157Z,102905.81
2023-02-09T08:14:23.633Z,102907.22
2023-02-09T08:17:16.221Z,102905.09
2023-02-09T08:19:46.858Z,102905.88
2023-02-09T08:22:22.440Z,102913.22
2023-02-09T08:24:53.609Z,102923.13
2023-02-09T08:27:23.538Z,102914.00
2023-02-09T08:29:53.544Z,102921.50
2023-02-09T08:32:23.347Z,102917.38
2023-02-09T08:34:53.251Z,102923.94
2023-02-09T08:37:25.608Z,102933.91
2023-02-09T08:39:55.432Z,102918.47
2023-02-09T08:42:25.227Z,102918.03
2023-02-09T08:44:54.973Z,102927.03
2023-02-09T08:47:24.731Z,102918.00
2023-02-09T08:49:54.485Z,102919.41
2023-02-09T08:52:26.834Z,102914.97
2023-02-09T08:54:56.620Z,102908.44
2023-02-09T08:57:41.653Z,102902.00
2023-02-09T09:00:14.351Z,102904.00
2023-02-09T09:02:44.153Z,102914.06
2023-02-09T09:05:13.964Z,102931.81
2023-02-09T09:07:46.370Z,102938.22
2023-02-09T09:10:16.161Z,102932.56
2023-02-09T09:12:45.986Z,102936.38
2023-02-09T09:15:15.782Z,102922.94
2023-02-09T09:17:45.555Z,102916.22
2023-02-09T09:20:16.079Z,102919.25
2023-02-09T09:22:48.480Z,102929.34
2023-02-09T09:25:18.751Z,102925.06
2023-02-09T09:27:48.561Z,102915.88
2023-02-09T09:30:18.415Z,102918.91
2023-02-09T09:32:48.236Z,102920.00
2023-02-09T09:48:54.405Z,102917.69
2023-02-09T09:51:30.438Z,102917.97
2023-02-09T09:54:02.416Z,102931.09
2023-02-09T09:56:33.341Z,102930.50
2023-02-09T09:59:04.853Z,102927.16
2023-02-09T10:01:35.891Z,102936.75
2023-02-09T10:04:14.748Z,102936.94
2023-02-09T10:06:46.976Z,102934.47
2023-02-09T10:09:27.254Z,102937.22
2023-02-09T10:12:08.384Z,102932.19
2023-02-09T10:14:38.115Z,102938.59
2023-02-09T10:17:09.016Z,102949.13
2023-02-09T10:19:41.456Z,102943.16
2023-02-09T10:22:15.684Z,102944.97
2023-02-09T10:24:45.425Z,102954.91
2023-02-09T10:27:22.396Z,102955.22
2023-02-09T10:29:52.153Z,102951.38
2023-02-09T10:32:23.902Z,102957.81
2023-02-09T10:34:58.012Z,102958.25
2023-02-09T10:37:35.910Z,102962.22
2023-02-09T10:40:15.643Z,102961.88
2023-02-09T10:42:56.772Z,102971.97
2023-02-09T10:45:29.954Z,102976.53
2023-02-09T10:48:01.703Z,102990.91
2023-02-09T10:50:34.147Z,102976.66
2023-02-09T10:53:05.750Z,102977.09
2023-02-09T10:55:39.456Z,102984.44
2023-02-09T10:58:17.514Z,102971.41
2023-02-09T11:00:53.784Z,102967.41
2023-02-09T11:03:27.958Z,102982.25
2023-02-09T11:06:06.222Z,102970.28
2023-02-09T11:08:43.266Z,102967.06
2023-02-09T11:11:28.773Z,102966.44
2023-02-09T11:13:58.852Z,102962.28
2023-02-09T11:17:06.986Z,102961.94
2023-02-09T11:19:57.463Z,102958.25
2023-02-09T11:22:50.319Z,102963.09
2023-02-09T11:25:26.074Z,102956.91
2023-02-09T11:28:21.630Z,102954.13
2023-02-09T11:31:14.586Z,102953.63
2023-02-09T11:33:51.763Z,102946.88
2023-02-09T11:36:44.190Z,102947.31
2023-02-09T11:39:23.087Z,102945.28
2023-02-09T11:42:13.479Z,102943.22
2023-02-09T11:44:49.648Z,102951.72
2023-02-09T11:47:25.537Z,102946.31
2023-02-09T11:49:57.067Z,102941.94
2023-02-09T11:52:34.350Z,102943.53
2023-02-09T11:55:20.988Z,102936.41
2023-02-09T11:57:55.766Z,102934.22
2023-02-09T12:00:30.439Z,102948.31
2023-02-09T12:03:05.038Z,102940.66
2023-02-09T12:05:35.129Z,102947.69
2023-02-09T12:08:22.475Z,102950.44
2023-02-09T12:11:04.206Z,102941.56
2023-02-09T12:13:43.287Z,102931.13
2023-02-09T12:16:19.072Z,102939.72
2023-02-09T12:18:49.311Z,102938.97
2023-02-09T12:21:32.575Z,102948.59
2023-02-09T12:24:03.379Z,102950.44
2023-02-09T12:26:46.765Z,102951.47
2023-02-09T12:29:35.867Z,102947.31
2023-02-09T12:32:30.879Z,102939.50
2023-02-09T12:35:27.279Z,102942.09
2023-02-09T12:38:17.232Z,102942.38
2023-02-09T12:41:04.914Z,102936.38
2023-02-09T12:43:38.854Z,102935.75
2023-02-09T12:46:51.992Z,102935.88
2023-02-09T12:49:25.591Z,102936.81
2023-02-09T12:52:16.681Z,102945.03
2023-02-09T12:54:50.367Z,102942.56
2023-02-09T12:57:56.106Z,102936.06
2023-02-09T13:00:54.839Z,102937.91
2023-02-09T13:03:27.788Z,102938.03
2023-02-09T13:06:01.517Z,102940.13
2023-02-09T13:08:38.783Z,102939.34
2023-02-09T13:11:21.253Z,102945.63
2023-02-09T13:13:56.202Z,102945.78
2023-02-09T13:16:57.715Z,102933.09
2023-02-09T13:19:55.895Z,102931.53
2023-02-09T13:22:38.146Z,102943.84
2023-02-09T13:25:16.662Z,102937.66
2023-02-09T13:27:48.214Z,102944.59
2023-02-09T13:30:28.235Z,102940.16
2023-02-09T13:33:10.707Z,102941.97
2023-02-09T13:35:54.755Z,102941.06
2023-02-09T13:38:24.741Z,102945.38
2023-02-09T13:40:55.597Z,102937.41
2023-02-09T13:43:31.276Z,102941.06
2023-02-09T13:46:02.580Z,102943.84
2023-02-09T13:48:37.871Z,102944.59
2023-02-09T13:51:17.486Z,102948.09
2023-02-09T13:53:59.150Z,102941.22
2023-02-09T13:56:29.661Z,102946.56
2023-02-09T13:59:00.253Z,102959.75
2023-02-09T14:01:33.265Z,102954.53
2023-02-09T14:04:10.706Z,102944.22
2023-02-09T14:06:44.335Z,102939.13
2023-02-09T14:09:20.238Z,102931.16
2023-02-09T14:11:54.119Z,102940.19
2023-02-09T14:14:28.771Z,102942.81
2023-02-09T14:17:24.698Z,102946.31
2023-02-09T14:19:59.489Z,102946.31
2023-02-09T14:22:34.539Z,102948.94
2023-02-09T14:25:19.994Z,102941.91
2023-02-09T14:27:51.250Z,102956.63
2023-02-09T14:30:23.833Z,102944.34
2023-02-09T14:32:58.804Z,102952.03
2023-02-09T14:35:33.686Z,102960.00
2023-02-09T14:38:05.211Z,102952.84
2023-02-09T14:40:37.574Z,102959.09
2023-02-09T14:43:25.179Z,102967.84
2023-02-09T14:46:01.934Z,102973.97
2023-02-09T14:48:33.135Z,102970.47
2023-02-09T14:51:15.584Z,102984.31
2023-02-09T14:53:47.138Z,102986.25
2023-02-09T14:56:24.603Z,102991.59
2023-02-09T14:58:54.527Z,102993.56
2023-02-09T15:01:25.123Z,102987.69
2023-02-09T15:03:54.990Z,102993.97
2023-02-09T15:06:33.156Z,102990.59
2023-02-09T15:09:05.305Z,102991.78
2023-02-09T15:11:48.343Z,102989.31
2023-02-09T15:14:18.960Z,102987.72
2023-02-09T15:16:49.621Z,102988.94
2023-02-09T15:19:23.555Z,102992.31
2023-02-09T15:22:06.659Z,102986.44
2023-02-09T15:24:39.164Z,102984.13
2023-02-09T15:27:09.384Z,102992.06
2023-02-09T15:29:39.161Z,102996.53
2023-02-09T15:32:17.040Z,102997.44
2023-02-09T15:34:47.508Z,102993.13
2023-02-09T15:37:24.675Z,102997.44
2023-02-09T15:39:59.455Z,102999.13
2023-02-09T15:42:41.629Z,103009.59
2023-02-09T15:45:34.790Z,103012.03
2023-02-09T15:48:04.682Z,103018.06
2023-02-09T15:50:35.614Z,103018.81
2023-02-09T15:53:11.081Z,103019.63
2023-02-09T15:55:42.632Z,103015.16
2023-02-09T15:58:16.872Z,103007.31
2023-02-09T16:00:47.046Z,103019.34
2023-02-09T16:03:20.561Z,103025.34
2023-02-09T16:05:53.809Z,103032.25
2023-02-09T16:08:28.533Z,103039.94
2023-02-09T16:10:58.343Z,103040.47
2023-02-09T16:13:28.276Z,103035.75
2023-02-09T16:16:11.117Z,103043.47
2023-02-09T16:18:46.024Z,103039.63
2023-02-09T16:21:22.838Z,103044.72
2023-02-09T16:23:57.621Z,103052.44
2023-02-09T16:26:29.715Z,103056.75
2023-02-09T16:29:01.303Z,103067.56
2023-02-09T16:31:34.703Z,103058.75
2023-02-09T16:34:04.638Z,103065.28
2023-02-09T16:36:34.794Z,103071.28
2023-02-09T16:39:09.465Z,103071.28
2023-02-09T16:41:51.680Z,103077.78
2023-02-09T16:44:23.755Z,103082.75
2023-02-09T16:46:56.631Z,103084.28
2023-02-09T16:49:37.688Z,103090.16
2023-02-09T16:52:16.959Z,103088.31
2023-02-09T16:54:52.039Z,103085.56
2023-02-09T16:57:25.410Z,103087.91
2023-02-09T16:59:56.201Z,103085.78
2023-02-09T17:02:51.962Z,103090.88
2023-02-09T17:05:24.695Z,103095.84
2023-02-09T17:07:56.721Z,103094.91
2023-02-09T17:10:32.575Z,103095.84
2023-02-09T17:13:04.813Z,103100.91
2023-02-09T17:15:40.145Z,103101.06
2023-02-09T17:18:12.396Z,103096.47
2023-02-09T17:20:46.694Z,103108.59
2023-02-09T17:23:23.261Z,103111.72
2023-02-09T17:25:57.424Z,103109.84
2023-02-09T17:28:28.504Z,103120.19
2023-02-09T17:31:00.919Z,103120.94
2023-02-09T17:33:34.448Z,103126.94
2023-02-09T17:38:55.627Z,103130.34
2023-02-09T17:41:33.116Z,103128.38
2023-02-09T17:44:24.324Z,103130.19
2023-02-09T17:46:59.076Z,103129.91
2023-02-09T17:49:28.999Z,103132.38
2023-02-09T17:51:58.799Z,103136.53
2023-02-09T17:54:32.674Z,103138.84
2023-02-09T17:57:05.721Z,103137.34
2023-02-09T17:59:35.500Z,103138.63
2023-02-09T18:02:05.571Z,103145.41
2023-02-09T18:04:35.430Z,103153.09
2023-02-09T18:07:05.270Z,103140.69
2023-02-09T18:09:35.051Z,103143.28
2023-02-09T18:12:16.727Z,103137.16
2023-02-09T18:14:46.539Z,103137.91
2023-02-09T18:17:16.789Z,103148.97
2023-02-09T18:19:46.527Z,103147.94
2023-02-09T18:22:20.040Z,103144.28
2023-02-09T18:24:50.888Z,103149.31
2023-02-09T18:27:25.734Z,103147.78
2023-02-09T18:29:55.608Z,103151.31
2023-02-09T18:32:25.788Z,103158.22
2023-02-09T18:34:55.560Z,103161.72
2023-02-09T18:37:25.685Z,103157.44
2023-02-09T18:39:55.559Z,103161.09
2023-02-09T18:42:28.321Z,103166.31
2023-02-09T18:44:58.363Z,103172.16
2023-02-09T18:47:28.162Z,103176.31
2023-02-09T18:49:57.979Z,103171.72
2023-02-09T18:52:28.051Z,103183.69
2023-02-09T18:54:58.104Z,103178.06
2023-02-09T18:57:30.697Z,103188.34
2023-02-09T19:00:01.711Z,103188.19
2023-02-09T19:02:31.622Z,103199.41
2023-02-09T19:05:02.834Z,103198.34
2023-02-09T19:07:32.711Z,103215.69
2023-02-09T19:10:02.588Z,103215.50
2023-02-09T19:12:35.348Z,103212.16
2023-02-09T19:15:05.260Z,103211.38
2023-02-09T19:17:35.044Z,103217.50
2023-02-09T19:20:05.792Z,103219.34
2023-02-09T19:22:35.597Z,103220.88
2023-02-09T19:25:05.449Z,103215.09
2023-02-09T19:27:38.488Z,103222.47
2023-02-09T19:30:08.919Z,103226.16
2023-02-09T19:32:39.332Z,103231.84
2023-02-09T19:35:09.978Z,103234.03
2023-02-09T19:37:41.992Z,103233.72
2023-02-09T19:40:21.195Z,103236.94
2023-02-09T19:42:53.555Z,103232.97
2023-02-09T19:45:23.495Z,103237.16
2023-02-09T19:47:53.292Z,103238.50
2023-02-09T19:50:23.097Z,103240.03
2023-02-09T19:52:53.218Z,103244.06
2023-02-09T19:55:23.008Z,103240.38
2023-02-09T19:57:55.467Z,103246.38
2023-02-09T20:00:25.591Z,103243.44
2023-02-09T20:02:55.434Z,103248.50
2023-02-09T20:05:25.267Z,103256.34
2023-02-09T20:07:55.036Z,103253.56
2023-02-09T20:10:25.401Z,103255.25
2023-02-09T20:12:57.868Z,103254.34
2023-02-09T20:15:27.886Z,103254.19
2023-02-09T20:17:57.981Z,103256.66
2023-02-09T20:20:27.721Z,103252.34
2023-02-09T20:22:57.526Z,103254.03
2023-02-09T20:25:27.392Z,103255.72
2023-02-09T20:28:00.092Z,103265.22
2023-02-09T20:30:29.918Z,103264.31
2023-02-09T20:32:59.687Z,103256.19
2023-02-09T20:35:29.884Z,103252.69
2023-02-09T20:37:59.682Z,103258.63
2023-02-09T20:40:30.975Z,103257.72
2023-02-09T20:43:15.731Z,103260.31
2023-02-09T20:45:58.033Z,103257.44
2023-02-09T20:48:27.891Z,103258.94
2023-02-09T20:50:57.648Z,103254.38
2023-02-09T20:53:27.420Z,103257.56
2023-02-09T20:55:58.703Z,103264.47
2023-02-09T20:58:31.066Z,103255.88
2023-02-09T21:01:00.834Z,103257.56
2023-02-09T21:03:30.683Z,103253.91
2023-02-09T21:06:00.456Z,103264.94
2023-02-09T21:08:30.238Z,103256.03
2023-02-09T21:11:01.570Z,103252.97
2023-02-09T21:13:33.998Z,103249.16
2023-02-09T21:16:04.295Z,103248.88
2023-02-09T21:18:34.157Z,103247.78
2023-02-09T21:21:05.999Z,103249.31
2023-02-09T21:23:36.007Z,103251.16
2023-02-09T21:26:06.967Z,103254.50
2023-02-09T21:28:39.763Z,103251.91
2023-02-09T21:31:12.791Z,103258.81
2023-02-09T21:33:42.906Z,103264.03
2023-02-09T21:36:13.072Z,103260.63
2023-02-09T21:38:44.203Z,103255.28
2023-02-09T21:41:35.981Z,103257.72
2023-02-09T21:44:10.032Z,103258.50
2023-02-09T21:46:39.964Z,103247.19
2023-02-09T21:49:09.801Z,103249.00
2023-02-09T21:51:39.696Z,103247.31
2023-02-09T21:54:09.602Z,103246.56
2023-02-09T21:56:39.346Z,103247.50
2023-02-09T21:59:12.238Z,103248.22
2023-02-09T22:01:42.685Z,103259.41
2023-02-09T22:04:12.651Z,103256.81
2023-02-09T22:06:42.518Z,103259.41
2023-02-09T22:09:12.284Z,103259.25
2023-02-09T22:11:42.348Z,103259.13
2023-02-09T22:14:14.765Z,103265.25
2023-02-09T22:16:46.839Z,103258.97
2023-02-09T22:19:16.840Z,103264.03
2023-02-09T22:21:46.641Z,103259.56
2023-02-09T22:24:17.544Z,103269.06
2023-02-09T22:26:47.690Z,103272.59
2023-02-09T22:29:20.661Z,103269.06
2023-02-09T22:31:50.765Z,103269.84
2023-02-09T22:34:20.600Z,103271.50
2023-02-09T22:36:54.265Z,103273.19
2023-02-09T22:39:24.959Z,103271.38
2023-02-09T22:41:58.914Z,103264.47
2023-02-09T22:44:32.295Z,103268.59
2023-02-09T22:47:02.109Z,103277.19
2023-02-09T22:49:31.975Z,103270.13
2023-02-09T22:52:01.789Z,103276.09
2023-02-09T22:54:31.597Z,103277.00
2023-02-09T22:57:01.418Z,103282.38
2023-02-09T22:59:36.313Z,103287.59
2023-02-09T23:02:06.446Z,103291.09
2023-02-09T23:04:36.258Z,103289.59
2023-02-09T23:07:06.932Z,103280.09
2023-02-09T23:09:36.813Z,103293.25
2023-02-09T23:12:06.901Z,103282.06
2023-02-09T23:14:39.334Z,103277.94
2023-02-09T23:17:09.102Z,103278.88
2023-02-09T23:19:40.645Z,103277.78
2023-02-09T23:22:10.448Z,103278.41
2023-02-09T23:24:40.244Z,103286.50
2023-02-09T23:27:10.002Z,103284.66
2023-02-09T23:29:42.785Z,103294.94
2023-02-09T23:32:12.584Z,103292.47
2023-02-09T23:34:42.382Z,103291.53
2023-02-09T23:37:18.670Z,103295.22
2023-02-09T23:39:58.445Z,103292.47
2023-02-09T23:42:28.207Z,103285.44
2023-02-09T23:45:00.598Z,103288.19
2023-02-09T23:47:30.366Z,103292.47
2023-02-09T23:50:00.196Z,103289.56
2023-02-09T23:52:30.388Z,103293.41
2023-02-09T23:55:00.257Z,103293.41
2023-02-09T23:57:31.160Z,103296.75
